Time;durP1;ratioP1;P1;durP2;ratioP2;P2;SDS_P1;SDS_P2;PMS_P1;PMS_P2;Temp;Humidity;BMP_temperature;BMP_pressure;BME280_temperature;BME280_humidity;BME280_pressure;Samples;Min_cycle;Max_cycle;Signal;HPM_P1;HPM_P2
2023/09/04 00:01:37;;;;;;;1999.90;999.90;;;14.10;99.90;;;;;;5056667;28;20422;-79
2023/09/04 00:04:06;;;;;;;1999.90;999.90;;;14.20;99.90;;;;;;5056217;28;20033;-78
2023/09/04 00:06:31;;;;;;;1999.90;999.90;;;14.20;99.90;;;;;;5091387;22;20536;-73
2023/09/04 00:08:59;;;;;;;1999.90;999.90;;;14.20;99.90;;;;;;5077426;28;20041;-73
2023/09/04 00:11:27;;;;;;;1999.90;999.90;;;14.20;99.90;;;;;;5076910;28;20040;-73
2023/09/04 00:13:52;;;;;;;1999.90;999.90;;;14.20;99.90;;;;;;5078044;28;20041;-73
2023/09/04 00:16:18;;;;;;;1999.90;999.90;;;14.30;99.90;;;;;;5078563;28;20029;-73
2023/09/04 00:18:44;;;;;;;1999.90;999.90;;;14.20;99.90;;;;;;5078882;28;20486;-73
2023/09/04 00:21:09;;;;;;;1999.90;999.90;;;14.10;99.90;;;;;;5078548;28;20037;-73
2023/09/04 00:23:35;;;;;;;1999.90;999.90;;;14.00;99.90;;;;;;5077799;28;20040;-73
2023/09/04 00:26:00;;;;;;;1999.90;999.90;;;14.00;99.90;;;;;;5077909;28;20567;-72
2023/09/04 00:28:26;;;;;;;1999.90;999.90;;;14.00;99.90;;;;;;5078119;28;20041;-73
2023/09/04 00:30:52;;;;;;;1999.90;999.90;;;14.00;99.90;;;;;;5078078;28;20031;-73
2023/09/04 00:33:17;;;;;;;1999.90;999.90;;;13.80;99.90;;;;;;5078039;28;20033;-73
2023/09/04 00:35:43;;;;;;;1999.90;999.90;;;14.00;99.90;;;;;;5076059;28;20032;-73
2023/09/04 00:38:09;;;;;;;1999.90;999.90;;;14.00;99.90;;;;;;5078148;28;20482;-73
2023/09/04 00:40:34;;;;;;;1999.90;999.90;;;14.00;99.90;;;;;;5077777;28;20457;-73
2023/09/04 00:43:01;;;;;;;1999.90;999.90;;;14.00;99.90;;;;;;5077865;28;20037;-73
2023/09/04 00:45:27;;;;;;;1999.90;999.90;;;13.90;99.90;;;;;;5077463;28;20108;-73
2023/09/04 00:47:53;;;;;;;1999.90;999.90;;;13.90;99.90;;;;;;5077740;28;20041;-73
2023/09/04 00:50:22;;;;;;;1999.90;999.90;;;13.90;99.90;;;;;;5077283;28;20492;-73
2023/09/04 00:52:50;;;;;;;1999.90;999.90;;;13.80;99.90;;;;;;5077690;28;20512;-73
2023/09/04 00:55:17;;;;;;;1999.90;999.90;;;13.90;99.90;;;;;;5076789;28;20091;-73
2023/09/04 00:57:43;;;;;;;1999.90;999.90;;;13.80;99.90;;;;;;5077009;28;20084;-73
2023/09/04 01:00:12;;;;;;;1999.90;999.90;;;13.80;99.90;;;;;;5077800;28;20526;-73
2023/09/04 01:02:38;;;;;;;1999.90;999.90;;;13.70;99.90;;;;;;5077029;28;20025;-72
2023/09/04 01:05:04;;;;;;;1999.90;999.90;;;13.80;99.90;;;;;;5076234;28;20055;-73
2023/09/04 01:07:31;;;;;;;1999.90;999.90;;;13.60;99.90;;;;;;5075951;28;20048;-73
2023/09/04 01:09:57;;;;;;;1999.90;999.90;;;13.60;99.90;;;;;;5077106;28;20040;-73
2023/09/04 01:12:26;;;;;;;1999.90;999.90;;;13.60;99.90;;;;;;5077519;28;20505;-73
2023/09/04 01:14:55;;;;;;;1999.90;999.90;;;13.60;99.90;;;;;;5076468;28;20098;-73
2023/09/04 01:17:22;;;;;;;1999.90;999.90;;;13.60;99.90;;;;;;5075438;28;20048;-73
2023/09/04 01:19:48;;;;;;;1999.90;999.90;;;13.60;99.90;;;;;;5076651;28;20021;-73
2023/09/04 01:22:13;;;;;;;1999.90;999.90;;;13.60;99.90;;;;;;5076185;28;20033;-72
2023/09/04 01:24:39;;;;;;;1999.90;999.90;;;13.60;99.90;;;;;;5075100;28;20032;-73
2023/09/04 01:27:13;;;;;;;1999.90;999.90;;;13.50;99.90;;;;;;5075989;28;20090;-73
2023/09/04 01:30:12;;;;;;;1999.90;999.90;;;13.50;99.90;;;;;;5076201;28;20037;-72
2023/09/04 01:32:43;;;;;;;1999.90;999.90;;;13.50;99.90;;;;;;5074548;28;20043;-72
2023/09/04 01:35:11;;;;;;;1999.90;999.90;;;13.50;99.90;;;;;;5075014;28;20029;-72
2023/09/04 01:37:38;;;;;;;1999.90;999.90;;;13.50;99.90;;;;;;5075988;28;20048;-73
2023/09/04 01:40:04;;;;;;;1999.90;999.90;;;13.40;99.90;;;;;;5076567;28;20055;-73
2023/09/04 01:42:30;;;;;;;1999.90;999.90;;;13.50;99.90;;;;;;5076729;28;20044;-73
2023/09/04 01:44:56;;;;;;;1999.90;999.90;;;13.50;99.90;;;;;;5076554;28;20029;-73
2023/09/04 01:47:22;;;;;;;1999.90;999.90;;;13.40;99.90;;;;;;5075397;28;20037;-73
2023/09/04 01:49:49;;;;;;;1999.90;999.90;;;13.50;99.90;;;;;;5076152;28;20482;-73
2023/09/04 01:52:14;;;;;;;1999.90;999.90;;;13.40;99.90;;;;;;5074917;28;20033;-73
2023/09/04 01:54:40;;;;;;;1999.90;999.90;;;13.40;99.90;;;;;;5074683;28;20032;-73
2023/09/04 01:57:05;;;;;;;1999.90;999.90;;;13.50;99.90;;;;;;5073878;28;20049;-73
2023/09/04 01:59:33;;;;;;;1999.90;999.90;;;13.30;99.90;;;;;;5076222;28;20041;-73
2023/09/04 02:01:59;;;;;;;1999.90;999.90;;;13.30;99.90;;;;;;5076394;28;20481;-73
2023/09/04 02:04:24;;;;;;;1999.90;999.90;;;13.20;99.90;;;;;;5074134;28;20033;-73
2023/09/04 02:06:50;;;;;;;1999.90;999.90;;;13.20;99.90;;;;;;5075402;28;20409;-72
2023/09/04 02:09:15;;;;;;;1999.90;999.90;;;13.20;99.90;;;;;;5075354;28;20075;-72
2023/09/04 02:11:41;;;;;;;1999.90;999.90;;;13.20;99.90;;;;;;5075499;28;20029;-73
2023/09/04 02:14:06;;;;;;;1999.90;999.90;;;13.10;99.90;;;;;;5074376;28;20474;-73
2023/09/04 02:16:32;;;;;;;1999.90;999.90;;;13.10;99.90;;;;;;5076064;28;20047;-72
2023/09/04 02:18:58;;;;;;;1999.90;999.90;;;13.10;99.90;;;;;;5074552;28;20040;-72
2023/09/04 02:21:23;;;;;;;1999.90;999.90;;;13.10;99.90;;;;;;5074653;28;20044;-73
2023/09/04 02:23:49;;;;;;;1999.90;999.90;;;13.10;99.90;;;;;;5074596;28;20036;-72
2023/09/04 02:26:14;;;;;;;1999.90;999.90;;;13.10;99.90;;;;;;5074011;28;20037;-73
2023/09/04 02:28:40;;;;;;;1999.90;999.90;;;13.10;99.90;;;;;;5074339;28;20033;-72
2023/09/04 02:31:06;;;;;;;1999.90;999.90;;;13.20;99.90;;;;;;5073063;28;20048;-73
2023/09/04 02:33:32;;;;;;;1999.90;999.90;;;13.20;99.90;;;;;;5074613;28;20120;-72
2023/09/04 02:35:58;;;;;;;1999.90;999.90;;;13.20;99.90;;;;;;5073671;28;20439;-73
2023/09/04 02:38:24;;;;;;;1999.90;999.90;;;13.10;99.90;;;;;;5074171;28;20041;-73
2023/09/04 02:40:50;;;;;;;1999.90;999.90;;;13.00;99.90;;;;;;5074178;28;20029;-72
2023/09/04 02:43:15;;;;;;;1999.90;999.90;;;13.00;99.90;;;;;;5072866;28;20029;-72
2023/09/04 02:45:41;;;;;;;1999.90;999.90;;;13.00;99.90;;;;;;5073825;28;20033;-73
2023/09/04 02:48:06;;;;;;;1999.90;999.90;;;12.90;99.90;;;;;;5074372;28;20506;-73
2023/09/04 02:50:33;;;;;;;1999.90;999.90;;;12.90;99.90;;;;;;5074544;28;20033;-72
2023/09/04 02:52:58;;;;;;;1999.90;999.90;;;12.80;99.90;;;;;;5074304;28;20056;-72
2023/09/04 02:55:24;;;;;;;1999.90;999.90;;;12.80;99.90;;;;;;5071959;28;20128;-72
2023/09/04 02:57:49;;;;;;;1999.90;999.90;;;12.80;99.90;;;;;;5073968;28;20115;-72
2023/09/04 03:00:15;;;;;;;1999.90;999.90;;;12.70;99.90;;;;;;5074209;28;20104;-72
2023/09/04 03:02:40;;;;;;;1999.90;999.90;;;12.70;99.90;;;;;;5074148;28;20076;-72
2023/09/04 03:05:07;;;;;;;1999.90;999.90;;;12.80;99.90;;;;;;5073164;28;20044;-72
2023/09/04 03:07:33;;;;;;;1999.90;999.90;;;12.70;99.90;;;;;;5072339;28;20094;-73
2023/09/04 03:09:59;;;;;;;1999.90;999.90;;;12.70;99.90;;;;;;5073957;28;20036;-72
2023/09/04 03:12:30;;;;;;;1999.90;999.90;;;12.70;99.90;;;;;;5073945;28;20112;-72
2023/09/04 03:14:57;;;;;;;1999.90;999.90;;;12.70;99.90;;;;;;5073635;28;20422;-73
2023/09/04 03:17:24;;;;;;;1999.90;999.90;;;12.70;99.90;;;;;;5072310;28;20037;-72
2023/09/04 03:19:52;;;;;;;1999.90;999.90;;;12.60;99.90;;;;;;5073634;28;20111;-72
2023/09/04 03:22:17;;;;;;;1999.90;999.90;;;12.60;99.90;;;;;;5073707;28;20033;-72
2023/09/04 03:24:43;;;;;;;1999.90;999.90;;;12.50;99.90;;;;;;5073543;28;20037;-72
2023/09/04 03:27:09;;;;;;;1999.90;999.90;;;12.50;99.90;;;;;;5073266;28;20036;-73
2023/09/04 03:29:34;;;;;;;1999.90;999.90;;;12.50;99.90;;;;;;5073958;28;20892;-72
2023/09/04 03:32:00;;;;;;;1999.90;999.90;;;12.50;99.90;;;;;;5073674;28;20041;-72
2023/09/04 03:34:25;;;;;;;1999.90;999.90;;;12.50;99.90;;;;;;5073103;28;20029;-73
2023/09/04 03:36:51;;;;;;;1999.90;999.90;;;12.50;99.90;;;;;;5073408;28;20072;-72
2023/09/04 03:39:16;;;;;;;1999.90;999.90;;;12.50;99.90;;;;;;5073704;28;20040;-72
2023/09/04 03:41:42;;;;;;;1999.90;999.90;;;12.50;99.90;;;;;;5075874;28;20033;-73
2023/09/04 03:44:07;;;;;;;1999.90;999.90;;;12.50;99.90;;;;;;5075260;28;20041;-73
2023/09/04 03:46:33;;;;;;;1999.90;999.90;;;12.50;99.90;;;;;;5076878;28;20028;-72
2023/09/04 03:48:59;;;;;;;1999.90;999.90;;;12.50;99.90;;;;;;5076874;28;20037;-72
2023/09/04 03:51:24;;;;;;;1999.90;999.90;;;12.40;99.90;;;;;;5077057;28;20029;-72
2023/09/04 03:53:50;;;;;;;1999.90;999.90;;;12.40;99.90;;;;;;5076856;28;20056;-72
2023/09/04 03:56:15;;;;;;;1999.90;999.90;;;12.40;99.90;;;;;;5076581;28;20080;-72
2023/09/04 03:58:41;;;;;;;1999.90;999.90;;;12.30;99.90;;;;;;5076634;28;20037;-73
2023/09/04 04:01:06;;;;;;;1999.90;999.90;;;12.30;99.90;;;;;;5076707;28;20116;-72
2023/09/04 04:03:32;;;;;;;1999.90;999.90;;;12.40;99.90;;;;;;5076906;28;20064;-73
2023/09/04 04:05:57;;;;;;;1999.90;999.90;;;12.30;99.90;;;;;;5075968;28;20043;-72
2023/09/04 04:08:23;;;;;;;1999.90;999.90;;;12.40;99.90;;;;;;5074996;28;20040;-72
2023/09/04 04:10:48;;;;;;;1999.90;999.90;;;12.30;99.90;;;;;;5076838;28;20072;-72
2023/09/04 04:13:14;;;;;;;1999.90;999.90;;;12.40;99.90;;;;;;5076697;28;20060;-73
2023/09/04 04:15:39;;;;;;;1999.90;999.90;;;12.30;99.90;;;;;;5076235;28;20033;-72
2023/09/04 04:18:08;;;;;;;1999.90;999.90;;;12.30;99.90;;;;;;5076371;28;20095;-72
2023/09/04 04:20:34;;;;;;;1999.90;999.90;;;12.30;99.90;;;;;;5076180;28;20473;-72
2023/09/04 04:23:00;;;;;;;1999.90;999.90;;;12.20;99.90;;;;;;5076442;28;20033;-72
2023/09/04 04:25:26;;;;;;;1999.90;999.90;;;12.20;99.90;;;;;;5076127;28;20037;-72
2023/09/04 04:27:51;;;;;;;1999.90;999.90;;;12.20;99.90;;;;;;5076337;28;20029;-72
2023/09/04 04:30:17;;;;;;;1999.90;999.90;;;12.20;99.90;;;;;;5076155;28;20064;-72
2023/09/04 04:32:42;;;;;;;1999.90;999.90;;;12.20;99.90;;;;;;5076435;28;20064;-72
2023/09/04 04:35:08;;;;;;;1999.90;999.90;;;12.20;99.90;;;;;;5075432;28;20104;-72
2023/09/04 04:37:33;;;;;;;1999.90;999.90;;;12.20;99.90;;;;;;5076193;28;20486;-72
2023/09/04 04:40:01;;;;;;;1999.90;999.90;;;12.20;99.90;;;;;;5076045;28;20029;-72
2023/09/04 04:42:26;;;;;;;1999.90;999.90;;;12.20;99.90;;;;;;5076049;28;20033;-72
2023/09/04 04:44:54;;;;;;;1999.90;999.90;;;12.20;99.90;;;;;;5074352;28;20029;-72
2023/09/04 04:47:20;;;;;;;1999.90;999.90;;;12.20;99.90;;;;;;5076011;28;20568;-72
2023/09/04 04:49:45;;;;;;;1999.90;999.90;;;12.30;99.90;;;;;;5074617;28;20084;-72
2023/09/04 04:52:11;;;;;;;1999.90;999.90;;;12.30;99.90;;;;;;5075808;28;20482;-76
2023/09/04 04:54:36;;;;;;;1999.90;999.90;;;12.30;99.90;;;;;;5074250;28;20470;-72
2023/09/04 04:57:02;;;;;;;1999.90;999.90;;;12.30;99.90;;;;;;5075663;28;20063;-72
2023/09/04 04:59:28;;;;;;;1999.90;999.90;;;12.20;99.90;;;;;;5076031;28;20028;-72
2023/09/04 05:01:56;;;;;;;1999.90;999.90;;;12.20;99.90;;;;;;5076715;28;20037;-72
2023/09/04 05:04:21;;;;;;;1999.90;999.90;;;12.20;99.90;;;;;;5075347;28;20025;-72
2023/09/04 05:06:47;;;;;;;1999.90;999.90;;;12.20;99.90;;;;;;5074960;28;20514;-72
2023/09/04 05:09:13;;;;;;;1999.90;999.90;;;12.20;99.90;;;;;;5075826;28;20435;-72
2023/09/04 05:11:39;;;;;;;1999.90;999.90;;;12.30;99.90;;;;;;5075753;28;20032;-72
2023/09/04 05:14:04;;;;;;;1999.90;999.90;;;12.30;99.90;;;;;;5075204;28;20028;-73
2023/09/04 05:16:30;;;;;;;1999.90;999.90;;;12.30;99.90;;;;;;5075596;28;20044;-72
2023/09/04 05:18:55;;;;;;;1999.90;999.90;;;12.30;99.90;;;;;;5074941;28;20068;-72
2023/09/04 05:21:21;;;;;;;1999.90;999.90;;;12.30;99.90;;;;;;5073948;28;20033;-73
2023/09/04 05:23:47;;;;;;;1999.90;999.90;;;12.30;99.90;;;;;;5074709;28;20449;-72
2023/09/04 05:26:13;;;;;;;1999.90;999.90;;;12.40;99.90;;;;;;5074800;28;20033;-73
2023/09/04 05:28:39;;;;;;;1999.90;999.90;;;12.40;99.90;;;;;;5075532;28;20068;-72
2023/09/04 05:31:05;;;;;;;1999.90;999.90;;;12.40;99.90;;;;;;5075465;28;20115;-72
2023/09/04 05:33:30;;;;;;;1999.90;999.90;;;12.40;99.90;;;;;;5075255;28;20029;-72
2023/09/04 05:35:57;;;;;;;1999.90;999.90;;;12.40;99.90;;;;;;5074712;28;20545;-73
2023/09/04 05:38:23;;;;;;;1999.90;999.90;;;12.50;99.90;;;;;;5075045;28;20040;-72
2023/09/04 05:40:49;;;;;;;1999.90;999.90;;;12.50;99.90;;;;;;5074853;28;20041;-72
2023/09/04 05:43:15;;;;;;;1999.90;999.90;;;12.60;99.90;;;;;;5075062;28;20033;-72
2023/09/04 05:45:41;;;;;;;1999.90;999.90;;;12.60;99.90;;;;;;5073385;28;20029;-73
2023/09/04 05:48:07;;;;;;;1999.90;999.90;;;12.70;99.90;;;;;;5075215;28;20539;-73
2023/09/04 05:50:32;;;;;;;1999.90;999.90;;;12.70;99.90;;;;;;5075136;28;20041;-73
2023/09/04 05:52:58;;;;;;;1999.90;999.90;;;12.80;99.90;;;;;;5075036;28;20037;-73
2023/09/04 05:55:23;;;;;;;1999.90;999.90;;;12.90;99.90;;;;;;5074524;28;20107;-73
2023/09/04 05:57:49;;;;;;;1999.90;999.90;;;12.90;99.90;;;;;;5075175;28;20057;-78
2023/09/04 06:00:15;;;;;;;1999.90;999.90;;;12.90;99.90;;;;;;5073914;28;20037;-76
2023/09/04 06:02:40;;;;;;;1999.90;999.90;;;13.00;99.90;;;;;;5075171;28;20041;-79
2023/09/04 06:05:06;;;;;;;1999.90;999.90;;;13.00;99.90;;;;;;5074045;28;20072;-78
2023/09/04 06:07:32;;;;;;;1999.90;999.90;;;13.10;99.90;;;;;;5077093;22;20049;-78
2023/09/04 06:09:57;;;;;;;1999.90;999.90;;;13.20;99.90;;;;;;5051625;28;20068;-85
2023/09/04 06:12:23;;;;;;;1999.90;999.90;;;13.20;99.90;;;;;;5050047;28;20033;-84
2023/09/04 06:14:48;;;;;;;1999.90;999.90;;;13.30;99.90;;;;;;5041774;28;20108;-85
2023/09/04 06:17:14;;;;;;;1999.90;999.90;;;13.40;99.90;;;;;;5042472;28;20045;-86
2023/09/04 06:19:39;;;;;;;1999.90;999.90;;;13.50;99.90;;;;;;5048010;28;20471;-86
2023/09/04 06:22:05;;;;;;;1999.90;999.90;;;13.60;99.90;;;;;;5038271;28;20133;-80
2023/09/04 06:24:32;;;;;;;1999.90;999.90;;;13.70;99.90;;;;;;5050062;28;20057;-81
2023/09/04 06:26:57;;;;;;;1999.90;999.90;;;13.70;99.90;;;;;;5038881;28;20053;-80
2023/09/04 06:29:23;;;;;;;1999.90;999.90;;;13.80;99.90;;;;;;5035615;28;20042;-80
2023/09/04 06:31:49;;;;;;;1999.90;999.90;;;13.90;99.90;;;;;;5041321;28;20037;-80
2023/09/04 06:34:15;;;;;;;1999.90;999.90;;;14.10;99.90;;;;;;5045302;28;20033;-82
2023/09/04 06:36:41;;;;;;;1999.90;999.90;;;14.00;99.90;;;;;;5048320;28;20025;-80
2023/09/04 06:39:06;;;;;;;1999.90;999.90;;;14.20;99.90;;;;;;5048176;28;20046;-80
2023/09/04 06:41:32;;;;;;;1999.90;999.90;;;14.20;99.90;;;;;;5048255;28;20030;-80
2023/09/04 06:43:58;;;;;;;1999.90;999.90;;;14.30;99.90;;;;;;5045030;28;20748;-81
2023/09/04 06:46:24;;;;;;;1999.90;999.90;;;14.50;99.90;;;;;;5050377;28;20026;-81
2023/09/04 06:48:50;;;;;;;1999.90;999.90;;;14.60;99.90;;;;;;5051569;28;20141;-82
2023/09/04 06:51:16;;;;;;;1999.90;999.90;;;14.70;99.90;;;;;;5045359;28;20076;-82
2023/09/04 06:53:42;;;;;;;1999.90;999.90;;;15.00;99.90;;;;;;5035871;28;20590;-80
2023/09/04 06:56:19;;;;;;;1999.90;999.90;;;15.00;99.90;;;;;;5036130;28;20491;-79
2023/09/04 06:58:48;;;;;;;1999.90;999.90;;;15.10;99.90;;;;;;5037682;28;20428;-79
2023/09/04 07:01:15;;;;;;;1999.90;999.90;;;15.20;99.90;;;;;;5037188;28;20033;-80
2023/09/04 07:03:41;;;;;;;1999.90;999.90;;;15.30;99.90;;;;;;5037358;28;20030;-80
2023/09/04 07:06:07;;;;;;;1999.90;999.90;;;15.60;99.90;;;;;;5037511;28;20090;-81
2023/09/04 07:08:33;;;;;;;1999.90;999.90;;;15.70;99.90;;;;;;5035153;28;20061;-81
2023/09/04 07:10:58;;;;;;;1999.90;999.90;;;15.70;99.90;;;;;;5033832;28;20030;-80
2023/09/04 07:13:24;;;;;;;1999.90;999.90;;;16.00;99.90;;;;;;5033700;28;20042;-79
2023/09/04 07:15:50;;;;;;;1999.90;999.90;;;16.20;99.90;;;;;;5034698;28;20026;-79
2023/09/04 07:18:15;;;;;;;1999.90;999.90;;;16.30;99.90;;;;;;5037945;28;20495;-79
2023/09/04 07:20:41;;;;;;;1999.90;999.90;;;16.40;99.90;;;;;;5037297;28;20030;-80
2023/09/04 07:23:06;;;;;;;1999.90;999.90;;;16.50;99.90;;;;;;5036701;28;20040;-80
2023/09/04 07:25:32;;;;;;;1999.90;999.90;;;16.70;99.90;;;;;;5036296;28;20121;-78
2023/09/04 07:27:58;;;;;;;1999.90;999.90;;;16.90;99.90;;;;;;5036612;28;20582;-78
2023/09/04 07:30:24;;;;;;;1999.90;999.90;;;17.10;99.90;;;;;;5037805;28;20030;-79
2023/09/04 07:32:49;;;;;;;1999.90;999.90;;;17.20;99.90;;;;;;5037973;28;20522;-79
2023/09/04 07:35:15;;;;;;;1999.90;999.90;;;17.30;99.90;;;;;;5036325;28;20392;-79
2023/09/04 07:37:41;;;;;;;1999.90;999.90;;;17.50;99.90;;;;;;5036148;28;20046;-79
2023/09/04 07:40:08;;;;;;;1999.90;999.90;;;17.60;99.90;;;;;;5036180;28;20373;-79
2023/09/04 07:42:34;;;;;;;1999.90;999.90;;;17.70;99.90;;;;;;5036032;28;20034;-80
2023/09/04 07:45:00;;;;;;;1999.90;999.90;;;17.80;99.90;;;;;;5036395;28;20034;-79
2023/09/04 07:47:25;;;;;;;1999.90;999.90;;;18.00;99.90;;;;;;5037503;28;20403;-80
2023/09/04 07:49:52;;;;;;;1999.90;999.90;;;18.20;99.90;;;;;;5035851;28;20045;-80
2023/09/04 07:52:18;;;;;;;1999.90;999.90;;;18.50;99.90;;;;;;5037442;28;20037;-80
2023/09/04 07:54:44;;;;;;;1999.90;999.90;;;18.50;99.90;;;;;;5037267;28;20396;-81
2023/09/04 07:57:10;;;;;;;1999.90;999.90;;;18.80;99.90;;;;;;5035862;28;20056;-80
2023/09/04 07:59:36;;;;;;;1999.90;999.90;;;18.80;99.90;;;;;;5037972;28;20044;-80
2023/09/04 08:02:03;;;;;;;1999.90;999.90;;;19.10;99.90;;;;;;5036659;28;20494;-80
2023/09/04 08:04:29;;;;;;;1999.90;999.90;;;19.10;99.90;;;;;;5036626;28;20096;-80
2023/09/04 08:06:58;;;;;;;1999.90;999.90;;;19.30;99.90;;;;;;5037410;28;20124;-80
2023/09/04 08:09:23;;;;;;;1999.90;999.90;;;19.40;99.90;;;;;;5037440;28;20053;-80
2023/09/04 08:11:49;;;;;;;1999.90;999.90;;;19.60;99.90;;;;;;5037633;28;20472;-80
2023/09/04 08:14:15;;;;;;;1999.90;999.90;;;19.70;99.90;;;;;;5035790;28;20045;-80
2023/09/04 08:16:41;;;;;;;1999.90;999.90;;;19.80;99.90;;;;;;5036206;28;20042;-80
2023/09/04 08:19:06;;;;;;;1999.90;999.90;;;19.90;99.90;;;;;;5035824;28;20841;-80
2023/09/04 08:21:32;;;;;;;1999.90;999.90;;;20.20;99.90;;;;;;5037792;28;20030;-80
2023/09/04 08:23:57;;;;;;;1999.90;999.90;;;20.40;99.90;;;;;;5035724;28;20057;-80
2023/09/04 08:26:23;;;;;;;1999.90;999.90;;;20.60;99.90;;;;;;5036574;28;20084;-80
2023/09/04 08:28:48;;;;;;;1999.90;999.90;;;20.80;99.90;;;;;;5036893;28;20033;-80
2023/09/04 08:31:14;;;;;;;1999.90;999.90;;;21.00;99.90;;;;;;5035562;28;20062;-79
2023/09/04 08:33:40;;;;;;;1999.90;999.90;;;21.20;99.90;;;;;;5035543;28;20403;-80
2023/09/04 08:36:05;;;;;;;1999.90;999.90;;;21.30;99.90;;;;;;5034760;28;20041;-79
2023/09/04 08:38:31;;;;;;;1999.90;999.90;;;21.40;99.90;;;;;;5035741;28;20038;-79
2023/09/04 08:41:00;;;;;;;1999.90;999.90;;;21.40;99.90;;;;;;5035443;28;20080;-78
2023/09/04 08:43:30;;;;;;;1999.90;999.90;;;21.60;99.90;;;;;;5035415;28;20030;-78
2023/09/04 08:46:02;;;;;;;1999.90;999.90;;;21.60;99.90;;;;;;5034669;28;20532;-79
2023/09/04 08:48:30;;;;;;;1999.90;999.90;;;21.80;99.90;;;;;;5030497;28;20219;-81
2023/09/04 08:50:56;;;;;;;1999.90;999.90;;;22.10;99.90;;;;;;5034748;28;20030;-79
2023/09/04 08:53:22;;;;;;;1999.90;999.90;;;22.20;99.90;;;;;;5033497;28;20081;-77
2023/09/04 08:55:49;;;;;;;1999.90;999.90;;;22.30;99.90;;;;;;5034980;28;20030;-76
2023/09/04 08:58:16;;;;;;;1999.90;999.90;;;20.20;99.90;;;;;;5036534;28;20033;-76
2023/09/04 09:00:43;;;;;;;1999.90;999.90;;;22.50;99.90;;;;;;5035741;28;20029;-78
2023/09/04 09:03:11;;;;;;;1999.90;999.90;;;22.50;99.90;;;;;;5036765;28;20095;-79
2023/09/04 09:05:37;;;;;;;1999.90;999.90;;;22.50;99.90;;;;;;5036718;28;20040;-82
2023/09/04 09:08:04;;;;;;;1999.90;999.90;;;22.50;99.90;;;;;;5036718;28;20049;-79
2023/09/04 09:10:30;;;;;;;1999.90;999.90;;;22.70;99.90;;;;;;5034420;28;20034;-79
2023/09/04 09:12:55;;;;;;;1999.90;999.90;;;22.80;99.90;;;;;;5035040;28;20041;-77
2023/09/04 09:15:21;;;;;;;1999.90;999.90;;;23.00;99.90;;;;;;5035696;28;20033;-79
2023/09/04 09:17:53;;;;;;;1999.90;999.90;;;23.00;99.90;;;;;;5034267;28;20562;-79
2023/09/04 09:20:35;;;;;;;1999.90;999.90;;;23.10;99.90;;;;;;5034339;28;20125;-79
2023/09/04 09:23:05;;;;;;;1999.90;999.90;;;23.10;99.90;;;;;;5035469;28;20089;-78
2023/09/04 09:25:34;;;;;;;1999.90;999.90;;;23.30;99.90;;;;;;5034967;28;20038;-78
2023/09/04 09:28:02;;;;;;;1999.90;999.90;;;23.50;99.90;;;;;;5035154;28;20037;-78
2023/09/04 09:30:54;;;;;;;1999.90;999.90;;;23.70;99.90;;;;;;5033955;28;20041;-78
2023/09/04 09:33:21;;;;;;;1999.90;999.90;;;24.00;99.90;;;;;;5036222;28;20508;-79
2023/09/04 09:35:46;;;;;;;1999.90;999.90;;;23.80;99.90;;;;;;5036922;28;20105;-79
2023/09/04 09:38:18;;;;;;;1999.90;999.90;;;23.90;98.60;;;;;;5034112;28;20038;-78
2023/09/04 09:40:44;;;;;;;1999.90;999.90;;;24.10;99.10;;;;;;5035107;28;20030;-79
2023/09/04 09:43:10;;;;;;;1999.90;999.90;;;24.10;98.90;;;;;;5035631;28;20491;-78
2023/09/04 09:45:36;;;;;;;1999.90;999.90;;;24.10;96.80;;;;;;5035684;28;20034;-79
2023/09/04 09:48:10;;;;;;;1999.90;999.90;;;24.00;95.40;;;;;;5030785;28;20079;-81
2023/09/04 09:50:40;;;;;;;1999.90;999.90;;;24.20;95.50;;;;;;5035179;28;20073;-79
2023/09/04 09:53:05;;;;;;;1999.90;999.90;;;24.40;96.00;;;;;;5033820;28;20038;-78
2023/09/04 09:55:33;;;;;;;1999.90;999.90;;;24.50;94.70;;;;;;5033493;28;20475;-78
2023/09/04 09:58:04;;;;;;;1999.90;999.90;;;24.40;95.80;;;;;;5036721;28;20045;-78
2023/09/04 10:00:29;;;;;;;1999.90;999.90;;;24.40;93.40;;;;;;5036714;28;20034;-78
2023/09/04 10:02:55;;;;;;;1999.90;999.90;;;24.70;94.50;;;;;;5036302;28;20041;-79
2023/09/04 10:05:25;;;;;;;1999.90;999.90;;;24.80;93.10;;;;;;5034782;28;20066;-79
2023/09/04 10:08:01;;;;;;;1999.90;999.90;;;24.90;92.80;;;;;;5035670;28;20038;-78
2023/09/04 10:10:28;;;;;;;1999.90;999.90;;;25.00;92.90;;;;;;5034262;28;20033;-78
2023/09/04 10:13:03;;;;;;;1999.90;999.90;;;25.20;93.80;;;;;;5034342;28;20038;-76
2023/09/04 10:15:32;;;;;;;1999.90;999.90;;;25.30;94.00;;;;;;5033803;28;20038;-77
2023/09/04 10:18:11;;;;;;;1999.90;999.90;;;25.50;92.80;;;;;;5033849;28;20128;-78
2023/09/04 10:20:43;;;;;;;1999.90;999.90;;;25.40;92.20;;;;;;5034868;28;20522;-78
2023/09/04 10:23:11;;;;;;;1999.90;999.90;;;25.40;93.60;;;;;;5035360;28;20072;-76
2023/09/04 10:25:51;;;;;;;1999.90;999.90;;;25.50;93.30;;;;;;5039153;28;20096;-75
2023/09/04 10:28:36;;;;;;;1999.90;999.90;;;25.60;91.70;;;;;;5040637;28;20033;-74
2023/09/04 10:31:03;;;;;;;1999.90;999.90;;;25.60;91.30;;;;;;5044382;28;20076;-74
2023/09/04 10:33:28;;;;;;;1999.90;999.90;;;25.70;91.60;;;;;;5044866;28;20045;-75
2023/09/04 10:35:54;;;;;;;1999.90;999.90;;;25.70;90.60;;;;;;5045997;28;20541;-75
2023/09/04 10:38:24;;;;;;;1999.90;999.90;;;25.70;91.80;;;;;;5049219;28;20399;-75
2023/09/04 10:40:51;;;;;;;1999.90;999.90;;;25.90;91.70;;;;;;5049282;28;20037;-76
2023/09/04 10:43:16;;;;;;;1999.90;999.90;;;26.00;91.30;;;;;;5029715;28;20030;-75
2023/09/04 10:45:42;;;;;;;1999.90;999.90;;;26.00;88.00;;;;;;5034343;28;20034;-76
2023/09/04 10:48:08;;;;;;;1999.90;999.90;;;26.00;88.20;;;;;;5040853;28;20080;-75
2023/09/04 10:50:38;;;;;;;1999.90;999.90;;;26.20;88.60;;;;;;5048024;28;20029;-76
2023/09/04 10:53:05;;;;;;;1999.90;999.90;;;26.30;87.90;;;;;;5052109;28;20033;-75
2023/09/04 10:55:36;;;;;;;1999.90;999.90;;;26.40;88.10;;;;;;5040998;28;20092;-75
2023/09/04 10:58:03;;;;;;;1999.90;999.90;;;26.40;89.00;;;;;;5039595;28;20045;-75
2023/09/04 11:00:29;;;;;;;1999.90;999.90;;;26.60;88.80;;;;;;5052537;28;20036;-78
2023/09/04 11:02:55;;;;;;;1999.90;999.90;;;26.70;83.20;;;;;;5041048;28;20033;-75
2023/09/04 11:05:21;;;;;;;1999.90;999.90;;;26.70;87.50;;;;;;5056928;28;20069;-75
2023/09/04 11:07:46;;;;;;;1999.90;999.90;;;27.00;85.30;;;;;;5025728;28;20061;-76
2023/09/04 11:10:17;;;;;;;1999.90;999.90;;;27.10;84.30;;;;;;5036339;28;20041;-77
2023/09/04 11:12:44;;;;;;;1999.90;999.90;;;27.00;81.60;;;;;;5035498;28;20038;-76
2023/09/04 11:15:17;;;;;;;1999.90;999.90;;;27.10;82.00;;;;;;5039644;28;20113;-76
2023/09/04 11:17:49;;;;;;;1999.90;999.90;;;27.00;80.30;;;;;;5032837;28;20112;-76
2023/09/04 11:20:17;;;;;;;1999.90;999.90;;;27.20;78.10;;;;;;5036229;28;20093;-77
2023/09/04 11:22:49;;;;;;;1999.90;999.90;;;27.30;76.30;;;;;;5034060;28;20511;-77
2023/09/04 11:25:18;;;;;;;1999.90;999.90;;;27.30;77.30;;;;;;5034688;28;20030;-77
2023/09/04 11:27:45;;;;;;;1999.90;999.90;;;27.40;79.20;;;;;;5037423;28;20478;-77
2023/09/04 11:30:11;;;;;;;1999.90;999.90;;;27.50;76.60;;;;;;5037319;28;20037;-78
2023/09/04 11:32:37;;;;;;;1999.90;999.90;;;27.70;76.10;;;;;;5042323;28;20501;-78
2023/09/04 11:35:03;;;;;;;1999.90;999.90;;;27.80;75.90;;;;;;5049854;28;20052;-78
2023/09/04 11:37:32;;;;;;;1999.90;999.90;;;27.60;72.10;;;;;;5038476;28;20065;-77
2023/09/04 11:40:06;;;;;;;1999.90;999.90;;;27.70;74.40;;;;;;5051587;28;20514;-78
2023/09/04 11:42:32;;;;;;;1999.90;999.90;;;27.90;75.00;;;;;;5045110;28;20128;-78
2023/09/04 11:44:58;;;;;;;1999.90;999.90;;;28.10;69.20;;;;;;5043546;28;20053;-78
2023/09/04 11:47:24;;;;;;;1999.90;999.90;;;28.10;70.80;;;;;;5051568;28;20033;-78
2023/09/04 11:49:50;;;;;;;1999.90;999.90;;;28.30;70.50;;;;;;5038404;28;20033;-78
2023/09/04 11:52:16;;;;;;;1999.90;999.90;;;28.40;66.50;;;;;;5040959;28;20071;-78
2023/09/04 11:54:43;;;;;;;1999.90;999.90;;;28.30;66.20;;;;;;5046011;28;20029;-79
2023/09/04 11:57:09;;;;;;;1999.90;999.90;;;28.40;65.50;;;;;;5046355;28;20029;-78